createdAt,value
2018-08-31T00:02:22.194Z,23.49
2018-08-31T00:05:51.819Z,23.47
2018-08-31T00:12:58.778Z,23.40
2018-08-31T00:15:30.421Z,23.21
2018-08-31T00:18:01.856Z,23.31
2018-08-31T00:20:33.530Z,23.35
2018-08-31T00:23:04.981Z,23.37
2018-08-31T00:26:27.888Z,23.41
2018-08-31T00:29:54.884Z,23.41
2018-08-31T00:33:07.681Z,23.36
2018-08-31T00:37:07.743Z,23.35
2018-08-31T00:42:51.197Z,23.29
2018-08-31T00:45:33.057Z,23.22
2018-08-31T00:48:05.221Z,23.28
2018-08-31T00:50:37.226Z,23.32
2018-08-31T00:53:08.983Z,23.35
2018-08-31T00:55:40.571Z,23.36
2018-08-31T00:58:12.228Z,23.37
2018-08-31T01:00:46.670Z,23.34
2018-08-31T01:03:18.200Z,23.35
2018-08-31T01:05:49.673Z,23.36
2018-08-31T01:08:21.305Z,23.36
2018-08-31T01:10:52.807Z,23.37
2018-08-31T01:13:24.374Z,23.37
2018-08-31T01:15:55.898Z,23.34
2018-08-31T01:18:27.341Z,23.33
2018-08-31T01:20:58.788Z,23.36
2018-08-31T01:23:30.435Z,23.30
2018-08-31T01:26:01.873Z,23.33
2018-08-31T01:28:33.448Z,23.29
2018-08-31T01:31:05.208Z,23.34
2018-08-31T01:33:37.312Z,23.32
2018-08-31T01:36:08.931Z,23.32
2018-08-31T01:38:39.655Z,23.25
2018-08-31T01:41:11.226Z,23.27
2018-08-31T01:43:42.860Z,23.28
2018-08-31T01:46:14.632Z,23.28
2018-08-31T01:48:46.212Z,23.27
2018-08-31T01:51:21.769Z,23.23
2018-08-31T01:53:53.312Z,23.29
2018-08-31T01:56:24.792Z,23.28
2018-08-31T01:58:56.420Z,23.25
2018-08-31T02:01:27.836Z,23.27
2018-08-31T02:04:03.401Z,23.30
2018-08-31T02:06:35.847Z,23.27
2018-08-31T02:09:13.801Z,23.30
2018-08-31T02:11:45.375Z,23.28
2018-08-31T02:14:16.905Z,23.25
2018-08-31T02:16:48.569Z,23.21
2018-08-31T02:19:20.009Z,23.23
2018-08-31T02:21:51.622Z,23.27
2018-08-31T02:24:22.973Z,23.26
2018-08-31T02:26:54.568Z,23.18
2018-08-31T02:29:26.204Z,23.21
2018-08-31T02:31:57.736Z,23.22
2018-08-31T02:34:29.321Z,23.21
2018-08-31T02:37:00.827Z,23.22
2018-08-31T02:39:32.223Z,23.20
2018-08-31T02:42:03.699Z,23.20
2018-08-31T02:44:35.192Z,23.21
2018-08-31T02:47:06.741Z,23.22
2018-08-31T02:49:38.716Z,23.19
2018-08-31T02:52:10.471Z,23.20
2018-08-31T02:54:42.228Z,23.13
2018-08-31T02:57:13.749Z,23.13
2018-08-31T02:59:45.462Z,23.11
2018-08-31T03:02:16.908Z,23.09
2018-08-31T03:04:48.396Z,23.09
2018-08-31T03:07:20.222Z,23.10
2018-08-31T03:09:51.731Z,23.14
2018-08-31T03:12:23.304Z,23.13
2018-08-31T03:14:54.753Z,23.13
2018-08-31T03:17:25.920Z,23.15
2018-08-31T03:19:56.347Z,23.07
2018-08-31T03:22:28.218Z,23.05
2018-08-31T03:24:59.700Z,23.09
2018-08-31T03:27:31.422Z,23.09
2018-08-31T03:30:02.761Z,23.08
2018-08-31T03:32:34.368Z,23.09
2018-08-31T03:35:06.309Z,23.10
2018-08-31T03:37:38.321Z,23.08
2018-08-31T03:40:09.854Z,23.05
2018-08-31T03:42:41.388Z,23.03
2018-08-31T03:45:12.915Z,23.05
2018-08-31T03:47:43.595Z,23.01
2018-08-31T03:50:15.194Z,22.97
2018-08-31T03:52:46.716Z,23.00
2018-08-31T03:55:18.223Z,23.03
2018-08-31T03:57:49.699Z,23.05
2018-08-31T04:00:21.369Z,23.05
2018-08-31T04:02:52.827Z,23.03
2018-08-31T04:05:24.411Z,23.02
2018-08-31T04:07:55.979Z,23.00
2018-08-31T04:10:27.630Z,23.01
2018-08-31T04:12:59.209Z,23.01
2018-08-31T04:15:30.710Z,23.04
2018-08-31T04:18:02.376Z,23.06
2018-08-31T04:20:33.821Z,23.01
2018-08-31T04:23:05.190Z,22.98
2018-08-31T04:25:36.709Z,22.98
2018-08-31T04:28:08.879Z,22.95
2018-08-31T04:30:40.548Z,22.98
2018-08-31T04:33:12.191Z,22.96
2018-08-31T04:35:43.692Z,23.00
2018-08-31T04:38:15.208Z,23.01
2018-08-31T04:40:46.717Z,22.97
2018-08-31T04:43:18.272Z,22.98
2018-08-31T04:45:49.766Z,22.94
2018-08-31T04:48:21.314Z,22.91
2018-08-31T04:50:53.224Z,22.92
2018-08-31T04:53:24.758Z,22.92
2018-08-31T04:55:56.382Z,22.92
2018-08-31T04:58:27.908Z,22.94
2018-08-31T05:00:58.693Z,22.93
2018-08-31T05:03:30.197Z,22.92
2018-08-31T05:06:01.848Z,22.95
2018-08-31T05:08:33.394Z,22.97
2018-08-31T05:11:05.071Z,22.97
2018-08-31T05:13:36.891Z,23.01
2018-08-31T05:16:08.718Z,22.99
2018-08-31T05:18:40.212Z,22.96
2018-08-31T05:21:11.848Z,22.98
2018-08-31T05:23:43.896Z,23.00
2018-08-31T05:26:15.612Z,23.02
2018-08-31T05:28:47.030Z,23.04
2018-08-31T05:31:18.653Z,22.98
2018-08-31T05:33:50.018Z,22.99
2018-08-31T05:36:21.711Z,23.05
2018-08-31T05:38:53.378Z,23.01
2018-08-31T05:41:24.971Z,23.07
2018-08-31T05:43:55.673Z,23.04
2018-08-31T05:46:27.316Z,23.07
2018-08-31T05:48:58.840Z,23.05
2018-08-31T05:51:30.412Z,23.09
2018-08-31T05:54:01.872Z,23.09
2018-08-31T05:56:33.405Z,23.12
2018-08-31T05:59:04.987Z,23.08
2018-08-31T06:01:36.534Z,23.10
2018-08-31T06:04:08.691Z,23.09
2018-08-31T06:06:40.433Z,23.15
2018-08-31T06:09:12.325Z,23.18
2018-08-31T06:11:43.825Z,23.17
2018-08-31T06:14:15.392Z,23.21
2018-08-31T06:16:46.874Z,23.18
2018-08-31T06:19:18.561Z,23.21
2018-08-31T06:23:09.516Z,23.18
2018-08-31T06:25:40.725Z,23.20
2018-08-31T06:28:11.795Z,23.27
2018-08-31T06:30:42.810Z,23.26
2018-08-31T06:33:13.807Z,23.28
2018-08-31T06:35:44.786Z,23.29
2018-08-31T06:38:15.827Z,23.29
2018-08-31T06:40:46.891Z,23.29
2018-08-31T06:43:17.870Z,23.32
2018-08-31T06:45:48.815Z,23.30
2018-08-31T06:48:19.833Z,23.29
2018-08-31T06:50:50.848Z,23.25
2018-08-31T06:53:21.836Z,23.29
2018-08-31T06:55:52.983Z,23.35
2018-08-31T06:58:24.217Z,23.36
2018-08-31T07:00:55.446Z,23.42
2018-08-31T07:03:26.995Z,23.40
2018-08-31T07:05:58.006Z,23.37
2018-08-31T07:08:29.053Z,23.41
2018-08-31T07:11:00.393Z,23.38
2018-08-31T07:13:31.663Z,23.40
2018-08-31T07:16:02.745Z,23.37
2018-08-31T07:18:33.846Z,23.35
2018-08-31T07:21:04.887Z,23.35
2018-08-31T07:23:37.485Z,23.34
2018-08-31T07:26:08.682Z,23.37
2018-08-31T07:28:39.699Z,23.39
2018-08-31T07:31:10.795Z,23.34
2018-08-31T07:33:41.828Z,23.36
2018-08-31T07:36:12.858Z,23.42
2018-08-31T07:38:44.504Z,23.41
2018-08-31T07:41:15.734Z,23.39
2018-08-31T07:43:46.869Z,23.45
2018-08-31T07:46:18.364Z,23.44
2018-08-31T07:48:49.733Z,23.51
2018-08-31T07:51:21.190Z,23.54
2018-08-31T07:53:52.724Z,23.64
2018-08-31T07:56:24.199Z,23.62
2018-08-31T07:58:55.722Z,23.64
2018-08-31T08:01:26.775Z,23.64
2018-08-31T08:03:57.891Z,23.63
2018-08-31T08:06:28.669Z,23.66
2018-08-31T08:09:00.207Z,23.66
2018-08-31T08:11:31.713Z,23.67
2018-08-31T08:14:03.350Z,23.74
2018-08-31T08:16:34.767Z,23.70
2018-08-31T08:19:06.573Z,23.72
2018-08-31T08:21:38.229Z,23.69
2018-08-31T08:24:09.901Z,23.69
2018-08-31T08:26:40.583Z,23.68
2018-08-31T08:29:12.214Z,23.68
2018-08-31T08:31:43.604Z,23.68
2018-08-31T08:34:15.220Z,23.67
2018-08-31T08:36:46.965Z,23.68
2018-08-31T08:39:17.677Z,23.70
2018-08-31T08:41:49.209Z,23.73
2018-08-31T08:44:21.193Z,23.74
2018-08-31T08:46:52.884Z,23.77
2018-08-31T08:49:24.571Z,23.81
2018-08-31T08:51:56.208Z,23.86
2018-08-31T08:54:27.733Z,23.89
2018-08-31T08:56:59.405Z,23.84
2018-08-31T08:59:30.762Z,23.78
2018-08-31T09:02:02.301Z,23.76
2018-08-31T09:04:33.782Z,23.79
2018-08-31T09:07:05.541Z,23.83
2018-08-31T09:09:36.897Z,23.83
2018-08-31T09:12:08.513Z,23.85
2018-08-31T09:14:39.982Z,23.92
2018-08-31T09:17:11.602Z,23.95
2018-08-31T09:19:43.204Z,23.96
2018-08-31T09:22:14.738Z,23.93
2018-08-31T09:24:46.466Z,23.96
2018-08-31T09:27:17.893Z,23.97
2018-08-31T09:29:49.607Z,24.06
2018-08-31T09:32:25.986Z,24.10
2018-08-31T09:34:58.764Z,24.11
2018-08-31T09:37:30.293Z,24.09
2018-08-31T09:40:01.878Z,24.17
2018-08-31T09:42:33.415Z,24.19
2018-08-31T09:45:04.792Z,24.21
2018-08-31T09:47:36.413Z,24.14
2018-08-31T09:50:08.074Z,24.11
2018-08-31T09:52:39.673Z,24.08
2018-08-31T09:55:11.211Z,24.09
2018-08-31T09:57:42.815Z,24.05
2018-08-31T10:00:14.646Z,24.00
2018-08-31T10:02:50.985Z,23.96
2018-08-31T10:05:22.637Z,23.95
2018-08-31T10:07:53.982Z,24.03
2018-08-31T10:10:25.685Z,24.05
2018-08-31T10:12:57.401Z,24.01
2018-08-31T10:15:28.986Z,23.96
2018-08-31T10:18:00.530Z,23.93
2018-08-31T10:20:32.220Z,23.96
2018-08-31T10:23:03.758Z,23.97
2018-08-31T10:25:35.709Z,24.00
2018-08-31T10:28:07.365Z,24.01
2018-08-31T10:30:39.218Z,23.99
2018-08-31T10:33:10.766Z,23.95
2018-08-31T10:35:42.317Z,23.91
2018-08-31T10:38:13.829Z,23.96
2018-08-31T10:40:45.337Z,23.98
2018-08-31T10:43:16.887Z,24.05
2018-08-31T10:45:48.356Z,24.11
2018-08-31T10:48:19.823Z,24.09
2018-08-31T10:50:51.444Z,24.04
2018-08-31T10:53:22.792Z,24.07
2018-08-31T10:55:54.311Z,24.03
2018-08-31T10:58:25.803Z,24.04
2018-08-31T11:00:56.897Z,24.01
2018-08-31T11:03:27.518Z,24.01
2018-08-31T11:05:59.212Z,23.99
2018-08-31T11:08:30.793Z,24.02
2018-08-31T11:11:02.300Z,24.02
2018-08-31T11:13:33.469Z,24.00
2018-08-31T11:16:04.978Z,23.98
2018-08-31T11:18:36.528Z,24.03
2018-08-31T11:21:08.239Z,23.98
2018-08-31T11:23:39.731Z,23.99
2018-08-31T11:26:11.315Z,23.99
2018-08-31T11:28:42.810Z,23.98
2018-08-31T11:31:14.039Z,23.99
2018-08-31T11:33:45.488Z,23.99
2018-08-31T11:36:17.218Z,23.98
2018-08-31T11:38:48.691Z,23.96
2018-08-31T11:41:20.241Z,23.97
2018-08-31T11:43:51.789Z,24.02
2018-08-31T11:46:23.398Z,23.98
2018-08-31T11:48:54.985Z,24.01
2018-08-31T11:51:26.626Z,24.01
2018-08-31T11:53:58.412Z,24.02
2018-08-31T11:56:29.986Z,24.00
2018-08-31T11:59:01.597Z,23.98
2018-08-31T12:01:33.480Z,23.99
2018-08-31T12:04:05.392Z,23.97
2018-08-31T12:06:37.210Z,23.99
2018-08-31T12:09:11.227Z,24.02
2018-08-31T12:11:42.791Z,23.99
2018-08-31T12:14:14.308Z,23.96
2018-08-31T12:16:45.755Z,23.98
2018-08-31T12:19:17.417Z,23.96
2018-08-31T12:21:48.817Z,23.96
2018-08-31T12:24:20.423Z,23.99
2018-08-31T12:26:52.219Z,24.00
2018-08-31T12:29:23.731Z,24.03
2018-08-31T12:31:55.343Z,23.96
2018-08-31T12:34:26.894Z,24.03
2018-08-31T12:36:58.557Z,24.02
2018-08-31T12:39:30.224Z,24.01
2018-08-31T12:42:01.737Z,24.03
2018-08-31T12:44:33.207Z,24.05
2018-08-31T12:47:04.726Z,24.02
2018-08-31T12:49:36.219Z,24.00
2018-08-31T12:52:07.767Z,24.01
2018-08-31T12:54:39.661Z,24.02
2018-08-31T12:57:11.209Z,24.01
2018-08-31T12:59:46.416Z,24.05
2018-08-31T13:02:17.786Z,24.06
2018-08-31T13:04:49.315Z,24.04
2018-08-31T13:07:20.837Z,24.05
2018-08-31T13:09:52.093Z,24.05
2018-08-31T13:12:23.350Z,24.03
2018-08-31T13:14:54.845Z,24.05
2018-08-31T13:17:26.583Z,24.08
2018-08-31T13:19:58.288Z,24.07
2018-08-31T13:22:29.818Z,24.07
2018-08-31T13:25:01.440Z,24.11
2018-08-31T13:27:32.913Z,24.06
2018-08-31T13:30:03.630Z,24.03
2018-08-31T13:32:34.892Z,24.06
2018-08-31T13:35:06.373Z,24.07
2018-08-31T13:37:38.401Z,24.11
2018-08-31T13:40:09.904Z,24.11
2018-08-31T13:42:40.604Z,24.14
2018-08-31T13:45:12.214Z,24.20
2018-08-31T13:47:43.753Z,24.21
2018-08-31T13:50:15.368Z,24.24
2018-08-31T13:52:46.824Z,24.21
2018-08-31T13:55:18.034Z,24.18
2018-08-31T13:57:49.378Z,24.15
2018-08-31T14:00:21.217Z,24.15
2018-08-31T14:02:52.763Z,24.18
2018-08-31T14:05:24.406Z,24.22
2018-08-31T14:07:55.831Z,24.21
2018-08-31T14:10:27.552Z,24.21
2018-08-31T14:12:59.058Z,24.26
2018-08-31T14:15:30.735Z,24.20
2018-08-31T14:18:02.323Z,24.19
2018-08-31T14:20:33.783Z,24.28
2018-08-31T14:23:05.440Z,24.20
2018-08-31T14:25:37.790Z,24.22
2018-08-31T14:28:12.233Z,24.22
2018-08-31T14:30:43.816Z,24.24
2018-08-31T14:33:15.342Z,24.26
2018-08-31T14:35:47.535Z,24.26
2018-08-31T14:38:19.078Z,24.22
2018-08-31T14:40:50.763Z,24.23
2018-08-31T14:43:22.433Z,24.21
2018-08-31T14:45:53.983Z,24.15
2018-08-31T14:48:25.570Z,24.16
2018-08-31T14:50:57.216Z,24.15
2018-08-31T14:53:28.765Z,24.21
2018-08-31T14:56:00.401Z,24.20
2018-08-31T14:58:31.871Z,24.21
2018-08-31T15:01:03.424Z,24.18
2018-08-31T15:03:34.899Z,24.19
2018-08-31T15:06:06.609Z,24.24
2018-08-31T15:08:38.234Z,24.25
2018-08-31T15:11:09.708Z,24.20
2018-08-31T15:13:40.763Z,24.17
2018-08-31T15:16:12.400Z,24.22
2018-08-31T15:18:43.896Z,24.24
2018-08-31T15:21:15.440Z,24.28
2018-08-31T15:23:46.812Z,24.27
2018-08-31T15:26:17.911Z,24.21
2018-08-31T15:28:49.230Z,24.13
2018-08-31T15:31:20.665Z,24.15
2018-08-31T15:33:52.236Z,24.17
2018-08-31T15:36:23.763Z,24.22
2018-08-31T15:38:55.453Z,24.20
2018-08-31T15:41:27.222Z,24.19
2018-08-31T15:43:58.793Z,24.19
2018-08-31T15:46:30.230Z,24.16
2018-08-31T15:49:01.802Z,24.19
2018-08-31T15:51:33.336Z,24.21
2018-08-31T15:54:04.849Z,24.22
2018-08-31T15:56:36.441Z,24.20
2018-08-31T15:59:07.842Z,24.19
2018-08-31T16:01:39.475Z,24.22
2018-08-31T16:04:10.878Z,24.20
2018-08-31T16:06:42.458Z,24.24
2018-08-31T16:09:13.795Z,24.22
2018-08-31T16:11:45.445Z,24.20
2018-08-31T16:14:17.028Z,24.19
2018-08-31T16:16:48.679Z,24.21
2018-08-31T16:19:20.200Z,24.21
2018-08-31T16:21:51.793Z,24.18
2018-08-31T16:24:22.827Z,24.17
2018-08-31T16:26:54.047Z,24.20
2018-08-31T16:29:25.682Z,24.20
2018-08-31T16:31:57.237Z,24.17
2018-08-31T16:34:28.768Z,24.16
2018-08-31T16:37:00.325Z,24.17
2018-08-31T16:39:31.749Z,24.14
2018-08-31T16:42:03.318Z,24.09
2018-08-31T16:44:34.761Z,24.11
2018-08-31T16:47:06.411Z,24.08
2018-08-31T16:49:37.852Z,24.07
2018-08-31T16:52:09.645Z,24.05
2018-08-31T16:54:41.236Z,24.04
2018-08-31T16:57:12.693Z,24.03
2018-08-31T16:59:44.218Z,24.05
2018-08-31T17:02:15.705Z,24.04
2018-08-31T17:04:47.362Z,24.03
2018-08-31T17:07:18.993Z,24.03
2018-08-31T17:09:50.679Z,24.05
2018-08-31T17:12:22.320Z,24.05
2018-08-31T17:14:53.916Z,24.01
2018-08-31T17:17:24.590Z,24.01
2018-08-31T17:19:56.226Z,23.99
2018-08-31T17:22:27.785Z,23.99
2018-08-31T17:24:59.316Z,23.96
2018-08-31T17:27:35.881Z,23.99
2018-08-31T17:30:14.490Z,24.00
2018-08-31T17:32:50.847Z,23.98
2018-08-31T17:35:27.324Z,23.95
2018-08-31T17:38:00.685Z,23.97
2018-08-31T17:40:32.680Z,23.96
2018-08-31T17:43:04.599Z,23.95
2018-08-31T17:45:36.205Z,23.93
2018-08-31T17:48:07.695Z,23.92
2018-08-31T17:50:39.318Z,23.92
2018-08-31T17:53:10.821Z,23.94
2018-08-31T17:55:42.409Z,23.92
2018-08-31T17:58:13.922Z,23.88
2018-08-31T18:00:44.615Z,23.89
2018-08-31T18:03:16.199Z,23.90
2018-08-31T18:05:47.709Z,23.91
2018-08-31T18:08:19.339Z,23.85
2018-08-31T18:10:50.757Z,23.91
2018-08-31T18:13:22.245Z,23.86
2018-08-31T18:15:53.944Z,23.86
2018-08-31T18:18:25.313Z,23.83
2018-08-31T18:20:56.783Z,23.80
2018-08-31T18:23:28.024Z,23.86
2018-08-31T18:25:59.511Z,23.86
2018-08-31T18:28:31.849Z,23.82
2018-08-31T18:31:03.563Z,23.82
2018-08-31T18:33:35.001Z,23.82
2018-08-31T18:36:06.663Z,23.82
2018-08-31T18:38:38.325Z,23.76
2018-08-31T18:41:09.915Z,23.78
2018-08-31T18:43:40.529Z,23.79
2018-08-31T18:46:12.219Z,23.79
2018-08-31T18:48:43.717Z,23.77
2018-08-31T18:51:15.465Z,23.74
2018-08-31T18:53:46.915Z,23.73
2018-08-31T18:56:18.408Z,23.73
2018-08-31T18:58:49.911Z,23.72
2018-08-31T19:01:20.555Z,23.74
2018-08-31T19:03:52.300Z,23.73
2018-08-31T19:06:23.798Z,23.71
2018-08-31T19:08:55.308Z,23.71
2018-08-31T19:11:26.779Z,23.70
2018-08-31T19:13:58.368Z,23.72
2018-08-31T19:16:30.201Z,23.68
2018-08-31T19:19:01.671Z,23.66
2018-08-31T19:21:33.221Z,23.61
2018-08-31T19:24:04.722Z,23.59
2018-08-31T19:26:36.410Z,23.61
2018-08-31T19:29:07.876Z,23.59
2018-08-31T19:31:39.446Z,23.52
2018-08-31T19:34:10.838Z,23.55
2018-08-31T19:36:42.306Z,23.51
2018-08-31T19:39:13.763Z,23.52
2018-08-31T19:41:45.388Z,23.46
2018-08-31T19:44:16.906Z,23.47
2018-08-31T19:46:47.619Z,23.46
2018-08-31T19:49:18.985Z,23.48
2018-08-31T19:51:50.541Z,23.43
2018-08-31T19:54:22.193Z,23.44
2018-08-31T19:56:53.800Z,23.43
2018-08-31T19:59:25.012Z,23.37
2018-08-31T20:01:56.371Z,23.36
2018-08-31T20:04:27.859Z,23.35
2018-08-31T20:06:59.422Z,23.37
2018-08-31T20:09:31.077Z,23.32
2018-08-31T20:12:02.706Z,23.35
2018-08-31T20:14:34.275Z,23.37
2018-08-31T20:17:05.744Z,23.35
2018-08-31T20:19:37.396Z,23.31
2018-08-31T20:22:13.218Z,23.30
2018-08-31T20:24:44.707Z,23.31
2018-08-31T20:27:16.303Z,23.28
2018-08-31T20:29:47.742Z,23.23
2018-08-31T20:32:19.392Z,23.25
2018-08-31T20:34:50.801Z,23.22
2018-08-31T20:37:22.449Z,23.21
2018-08-31T20:39:53.870Z,23.17
2018-08-31T20:42:25.453Z,23.20
2018-08-31T20:44:57.202Z,23.16
2018-08-31T20:47:28.701Z,23.20
2018-08-31T20:50:00.210Z,23.18
2018-08-31T20:52:31.741Z,23.15
2018-08-31T20:55:03.300Z,23.16
2018-08-31T20:57:34.960Z,23.13
2018-08-31T21:00:06.617Z,23.11
2018-08-31T21:02:38.201Z,23.10
2018-08-31T21:05:09.666Z,23.09
2018-08-31T21:07:41.200Z,23.10
2018-08-31T21:10:12.701Z,23.10
2018-08-31T21:12:44.364Z,23.09
2018-08-31T21:15:15.865Z,23.04
2018-08-31T21:17:47.447Z,23.04
2018-08-31T21:20:18.892Z,23.04
2018-08-31T21:22:50.435Z,23.02
2018-08-31T21:25:21.972Z,22.98
2018-08-31T21:27:53.421Z,23.02
2018-08-31T21:30:24.946Z,23.03
2018-08-31T21:32:55.597Z,23.00
2018-08-31T21:35:26.982Z,22.94
2018-08-31T21:37:58.487Z,22.96
2018-08-31T21:40:29.979Z,23.00
2018-08-31T21:43:01.499Z,22.96
2018-08-31T21:45:33.210Z,22.96
2018-08-31T21:48:04.717Z,22.91
2018-08-31T21:50:36.349Z,22.85
2018-08-31T21:53:07.726Z,22.92
2018-08-31T21:55:39.394Z,22.98
2018-08-31T21:58:11.309Z,22.98
2018-08-31T22:00:44.218Z,22.92
2018-08-31T22:03:15.990Z,22.90
2018-08-31T22:05:49.006Z,22.89
2018-08-31T22:08:20.724Z,22.83
2018-08-31T22:10:51.796Z,22.85
2018-08-31T22:13:23.002Z,22.85
2018-08-31T22:15:54.558Z,22.87
2018-08-31T22:18:25.867Z,22.84
2018-08-31T22:20:57.414Z,22.84
2018-08-31T22:23:28.991Z,22.83
2018-08-31T22:26:00.636Z,22.84
2018-08-31T22:28:31.985Z,22.79
2018-08-31T22:31:03.543Z,22.77
2018-08-31T22:33:35.188Z,22.78
2018-08-31T22:36:06.994Z,22.78
2018-08-31T22:38:38.590Z,22.77
2018-08-31T22:41:10.229Z,22.74
2018-08-31T22:43:56.215Z,22.75
2018-08-31T22:46:27.685Z,22.74
2018-08-31T22:48:59.304Z,22.76
2018-08-31T22:51:30.834Z,22.75
2018-08-31T22:54:02.352Z,22.72
2018-08-31T22:56:33.749Z,22.70
2018-08-31T22:59:05.203Z,22.69
2018-08-31T23:01:36.670Z,22.66
2018-08-31T23:04:08.254Z,22.65
2018-08-31T23:06:39.773Z,22.64
2018-08-31T23:09:11.316Z,22.69
2018-08-31T23:11:42.970Z,22.63
2018-08-31T23:14:14.814Z,22.67
2018-08-31T23:16:46.200Z,22.62
2018-08-31T23:19:17.725Z,22.63
2018-08-31T23:21:48.975Z,22.67
2018-08-31T23:24:20.305Z,22.63
2018-08-31T23:26:51.720Z,22.65
2018-08-31T23:29:23.310Z,22.64
2018-08-31T23:31:54.810Z,22.64
2018-08-31T23:34:26.325Z,22.62
2018-08-31T23:36:57.859Z,22.56
2018-08-31T23:39:29.438Z,22.59
2018-08-31T23:42:00.773Z,22.57
2018-08-31T23:44:32.424Z,22.58
2018-08-31T23:47:03.791Z,22.58
2018-08-31T23:49:35.394Z,22.53
2018-08-31T23:52:06.821Z,22.50
2018-08-31T23:54:38.433Z,22.47
2018-08-31T23:57:10.211Z,22.44
2018-08-31T23:59:41.731Z,22.49
